createdAt,value
2016-06-21T00:00:02.690Z,24.8
2016-06-21T00:01:03.327Z,24.88
2016-06-21T00:02:03.487Z,24.6
2016-06-21T00:03:03.283Z,24.68
2016-06-21T00:04:03.278Z,24.66
2016-06-21T00:05:02.598Z,24.58
2016-06-21T00:06:03.237Z,24.78
2016-06-21T00:07:01.937Z,24.76
2016-06-21T00:08:03.218Z,24.6
2016-06-21T00:09:02.569Z,24.68
2016-06-21T00:10:03.183Z,24.68
2016-06-21T00:11:03.185Z,24.86
2016-06-21T00:12:03.158Z,24.85
2016-06-21T00:13:03.155Z,24.7
2016-06-21T00:14:03.140Z,24.68
2016-06-21T00:15:03.122Z,24.53
2016-06-21T00:16:03.125Z,24.47
2016-06-21T00:17:02.463Z,24.53
2016-06-21T00:18:02.461Z,24.51
2016-06-21T00:19:02.442Z,24.63
2016-06-21T00:20:03.045Z,24.51
2016-06-21T00:21:03.060Z,24.53
2016-06-21T00:22:02.421Z,24.5
2016-06-21T00:23:02.371Z,24.58
2016-06-21T00:24:02.385Z,24.63
2016-06-21T00:25:02.367Z,24.58
2016-06-21T00:26:02.974Z,24.53
2016-06-21T00:27:02.336Z,24.55
2016-06-21T00:28:02.969Z,24.63
2016-06-21T00:29:02.932Z,24.54
2016-06-21T00:30:02.946Z,24.42
2016-06-21T00:31:02.911Z,24.5
2016-06-21T00:32:02.909Z,24.45
2016-06-21T00:33:02.251Z,24.53
2016-06-21T00:34:02.877Z,24.58
2016-06-21T00:35:02.871Z,24.55
2016-06-21T00:36:02.891Z,24.54
2016-06-21T00:37:02.849Z,24.65
2016-06-21T00:38:02.832Z,24.63
2016-06-21T00:39:02.817Z,24.5
2016-06-21T00:40:01.519Z,24.58
2016-06-21T00:41:02.135Z,24.65
2016-06-21T00:42:02.126Z,24.61
2016-06-21T00:43:02.762Z,24.55
2016-06-21T00:44:02.093Z,24.68
2016-06-21T00:45:02.745Z,24.51
2016-06-21T00:46:02.069Z,24.63
2016-06-21T00:47:02.076Z,24.63
2016-06-21T00:48:02.697Z,24.6
2016-06-21T00:49:02.691Z,24.54
2016-06-21T00:50:02.664Z,24.54
2016-06-21T00:51:02.650Z,24.47
2016-06-21T00:52:01.996Z,24.76
2016-06-21T00:53:02.629Z,24.63
2016-06-21T00:54:02.614Z,24.55
2016-06-21T00:55:02.597Z,24.65
2016-06-21T00:56:01.954Z,24.53
2016-06-21T00:57:01.296Z,24.48
2016-06-21T00:58:02.559Z,24.54
2016-06-21T00:59:01.908Z,24.6
2016-06-21T01:00:02.541Z,24.65
2016-06-21T01:01:02.511Z,24.73
2016-06-21T01:02:02.506Z,24.58
2016-06-21T01:03:02.490Z,24.63
2016-06-21T01:04:01.832Z,24.65
2016-06-21T01:05:01.829Z,24.58
2016-06-21T01:06:02.455Z,24.54
2016-06-21T01:07:01.795Z,24.54
2016-06-21T01:08:02.440Z,24.63
2016-06-21T01:09:02.428Z,24.65
2016-06-21T01:10:02.407Z,24.68
2016-06-21T01:11:01.781Z,24.61
2016-06-21T01:12:02.377Z,24.69
2016-06-21T01:13:02.363Z,24.73
2016-06-21T01:14:02.337Z,24.53
2016-06-21T01:15:01.701Z,24.51
2016-06-21T01:16:02.325Z,24.54
2016-06-21T01:17:02.319Z,24.55
2016-06-21T01:18:01.649Z,24.45
2016-06-21T01:19:01.649Z,24.54
2016-06-21T01:20:01.637Z,24.68
2016-06-21T01:21:02.244Z,24.61
2016-06-21T01:22:02.253Z,24.66
2016-06-21T01:23:00.950Z,24.58
2016-06-21T01:24:02.210Z,24.57
2016-06-21T01:25:01.558Z,24.54
2016-06-21T01:26:02.187Z,24.5
2016-06-21T01:27:01.540Z,24.38
2016-06-21T01:28:02.168Z,24.47
2016-06-21T01:29:01.497Z,24.48
2016-06-21T01:30:02.138Z,24.5
2016-06-21T01:31:02.127Z,24.45
2016-06-21T01:32:02.103Z,24.42
2016-06-21T01:33:02.114Z,24.53
2016-06-21T01:34:01.425Z,24.43
2016-06-21T01:35:02.089Z,24.33
2016-06-21T01:36:02.068Z,24.38
2016-06-21T01:37:02.051Z,24.45
2016-06-21T01:38:01.378Z,24.39
2016-06-21T01:39:02.022Z,24.36
2016-06-21T01:40:01.364Z,24.38
2016-06-21T01:41:01.989Z,24.58
2016-06-21T01:42:01.983Z,24.54
2016-06-21T01:43:01.329Z,24.57
2016-06-21T01:44:01.307Z,24.54
2016-06-21T01:45:01.932Z,24.61
2016-06-21T01:46:01.276Z,24.48
2016-06-21T01:47:01.897Z,24.32
2016-06-21T01:48:01.893Z,24.35
2016-06-21T01:49:01.878Z,24.36
2016-06-21T01:50:01.891Z,24.42
2016-06-21T01:51:01.855Z,24.51
2016-06-21T01:52:01.189Z,24.42
2016-06-21T01:53:01.182Z,24.33
2016-06-21T01:54:01.826Z,24.36
2016-06-21T01:55:01.180Z,24.32
2016-06-21T01:56:01.784Z,24.51
2016-06-21T01:57:01.147Z,24.35
2016-06-21T01:58:01.123Z,24.32
2016-06-21T01:59:01.737Z,24.42
2016-06-21T02:00:01.734Z,24.5
2016-06-21T02:01:01.082Z,24.48
2016-06-21T02:02:01.714Z,24.54
2016-06-21T02:03:01.701Z,24.48
2016-06-21T02:04:01.679Z,24.45
2016-06-21T02:05:01.668Z,24.33
2016-06-21T02:06:01.648Z,24.38
2016-06-21T02:07:00.998Z,24.36
2016-06-21T02:08:01.611Z,24.38
2016-06-21T02:09:01.607Z,24.43
2016-06-21T02:10:01.604Z,24.33
2016-06-21T02:11:00.959Z,24.42
2016-06-21T02:12:00.299Z,24.43
2016-06-21T02:13:00.928Z,24.33
2016-06-21T02:14:00.914Z,24.36
2016-06-21T02:15:00.891Z,24.48
2016-06-21T02:16:00.876Z,24.47
2016-06-21T02:17:00.860Z,24.48
2016-06-21T02:18:01.510Z,24.48
2016-06-21T02:19:00.870Z,24.43
2016-06-21T02:20:01.474Z,24.6
2016-06-21T02:21:00.823Z,24.5
2016-06-21T02:22:00.814Z,24.39
2016-06-21T02:23:01.415Z,24.45
2016-06-21T02:24:00.776Z,24.47
2016-06-21T02:25:00.762Z,24.38
2016-06-21T02:26:00.732Z,24.36
2016-06-21T02:27:01.385Z,24.54
2016-06-21T02:28:01.367Z,24.55
2016-06-21T02:29:00.698Z,24.58
2016-06-21T02:30:01.341Z,24.54
2016-06-21T02:31:01.329Z,24.58
2016-06-21T02:32:01.303Z,24.55
2016-06-21T02:33:01.294Z,24.54
2016-06-21T02:34:00.666Z,24.57
2016-06-21T02:35:01.262Z,24.58
2016-06-21T02:36:01.243Z,24.68
2016-06-21T02:37:01.246Z,24.7
2016-06-21T02:38:01.219Z,24.55
2016-06-21T02:39:00.591Z,24.57
2016-06-21T02:40:01.204Z,24.66
2016-06-21T02:41:00.553Z,24.65
2016-06-21T02:42:00.531Z,24.55
2016-06-21T02:43:01.183Z,24.5
2016-06-21T02:44:01.150Z,24.5
2016-06-21T02:45:00.492Z,24.7
2016-06-21T02:46:01.115Z,24.51
2016-06-21T02:47:01.110Z,24.54
2016-06-21T02:48:01.088Z,24.66
2016-06-21T02:49:01.096Z,24.77
2016-06-21T02:50:01.061Z,24.8
2016-06-21T02:51:00.414Z,24.6
2016-06-21T02:52:01.041Z,24.51
2016-06-21T02:53:01.032Z,24.54
2016-06-21T02:54:01.014Z,24.57
2016-06-21T02:55:00.997Z,24.6
2016-06-21T02:56:00.986Z,24.7
2016-06-21T02:57:00.974Z,24.68
2016-06-21T02:57:59.701Z,24.54
2016-06-21T02:58:59.660Z,24.61
2016-06-21T03:00:00.311Z,24.57
2016-06-21T03:00:59.664Z,24.5
2016-06-21T03:02:00.910Z,24.6
2016-06-21T03:03:00.902Z,24.39
2016-06-21T03:04:00.875Z,24.48
2016-06-21T03:05:00.223Z,24.48
2016-06-21T03:06:00.201Z,24.43
2016-06-21T03:07:00.856Z,24.47
2016-06-21T03:08:00.823Z,24.42
2016-06-21T03:09:00.805Z,24.35
2016-06-21T03:10:00.808Z,24.45
2016-06-21T03:11:00.782Z,24.48
2016-06-21T03:11:59.509Z,24.5
2016-06-21T03:13:00.762Z,24.38
2016-06-21T03:14:00.759Z,24.36
2016-06-21T03:15:00.742Z,24.33
2016-06-21T03:16:00.094Z,24.48
2016-06-21T03:16:59.425Z,24.45
2016-06-21T03:18:00.058Z,24.38
2016-06-21T03:19:00.690Z,24.35
2016-06-21T03:20:00.678Z,24.5
2016-06-21T03:20:59.398Z,24.58
2016-06-21T03:22:00.003Z,24.57
2016-06-21T03:23:00.639Z,24.53
2016-06-21T03:23:59.979Z,24.66
2016-06-21T03:24:59.979Z,24.58
2016-06-21T03:26:00.579Z,24.38
2016-06-21T03:27:00.566Z,24.4
2016-06-21T03:28:00.557Z,24.33
2016-06-21T03:29:00.555Z,24.43
2016-06-21T03:29:59.907Z,24.43
2016-06-21T03:30:59.879Z,24.5
2016-06-21T03:32:00.504Z,24.48
2016-06-21T03:33:00.502Z,24.45
2016-06-21T03:34:00.478Z,24.5
2016-06-21T03:35:00.479Z,24.57
2016-06-21T03:35:59.820Z,24.63
2016-06-21T03:37:00.436Z,24.68
2016-06-21T03:37:59.814Z,24.63
2016-06-21T03:38:59.792Z,24.54
2016-06-21T03:40:00.388Z,24.57
2016-06-21T03:41:00.393Z,24.54
2016-06-21T03:42:00.371Z,24.43
2016-06-21T03:43:00.368Z,24.51
2016-06-21T03:44:00.353Z,24.43
2016-06-21T03:44:59.706Z,24.4
2016-06-21T03:46:00.327Z,24.48
2016-06-21T03:47:00.293Z,24.63
2016-06-21T03:48:00.303Z,24.7
2016-06-21T03:48:59.640Z,24.61
2016-06-21T03:50:00.263Z,24.66
2016-06-21T03:50:59.611Z,24.73
2016-06-21T03:51:59.606Z,24.58
2016-06-21T03:53:00.220Z,24.61
2016-06-21T03:54:00.210Z,24.57
2016-06-21T03:55:00.215Z,24.55
2016-06-21T03:56:00.189Z,24.43
2016-06-21T03:57:00.182Z,24.5
2016-06-21T03:57:59.518Z,24.5
2016-06-21T03:59:00.153Z,24.57
2016-06-21T03:59:59.499Z,24.48
2016-06-21T04:00:59.482Z,24.58
2016-06-21T04:02:00.104Z,24.55
2016-06-21T04:02:59.456Z,24.54
2016-06-21T04:03:59.449Z,24.47
2016-06-21T04:05:00.069Z,24.42
2016-06-21T04:06:00.046Z,24.45
2016-06-21T04:06:59.409Z,24.38
2016-06-21T04:07:59.390Z,24.4
2016-06-21T04:08:59.385Z,24.43
2016-06-21T04:10:00.012Z,24.54
2016-06-21T04:10:59.985Z,24.58
2016-06-21T04:11:59.973Z,24.54
2016-06-21T04:12:59.320Z,24.53
2016-06-21T04:13:59.944Z,24.54
2016-06-21T04:14:59.286Z,24.57
2016-06-21T04:15:59.283Z,24.61
2016-06-21T04:16:59.893Z,24.58
2016-06-21T04:17:59.886Z,24.63
2016-06-21T04:18:59.877Z,24.5
2016-06-21T04:19:59.877Z,24.43
2016-06-21T04:20:59.227Z,24.36
2016-06-21T04:21:59.197Z,24.33
2016-06-21T04:22:59.835Z,24.33
2016-06-21T04:23:59.803Z,24.3
2016-06-21T04:24:59.801Z,24.23
2016-06-21T04:25:59.784Z,24.23
2016-06-21T04:26:59.125Z,24.35
2016-06-21T04:27:59.115Z,24.28
2016-06-21T04:28:59.745Z,24.29
2016-06-21T04:29:59.733Z,24.2
2016-06-21T04:30:59.716Z,24.36
2016-06-21T04:31:59.061Z,24.36
2016-06-21T04:32:59.047Z,24.38
2016-06-21T04:33:59.687Z,24.48
2016-06-21T04:34:59.659Z,24.47
2016-06-21T04:35:59.660Z,24.38
2016-06-21T04:36:59.637Z,24.45
2016-06-21T04:37:59.626Z,24.24
2016-06-21T04:38:59.615Z,24.3
2016-06-21T04:39:58.953Z,24.24
2016-06-21T04:40:59.584Z,24.23
2016-06-21T04:41:59.575Z,24.26
2016-06-21T04:42:58.274Z,24.26
2016-06-21T04:43:59.538Z,24.24
2016-06-21T04:44:58.888Z,24.3
2016-06-21T04:45:58.871Z,24.38
2016-06-21T04:46:59.506Z,24.33
2016-06-21T04:47:59.495Z,24.28
2016-06-21T04:48:59.477Z,24.21
2016-06-21T04:49:59.468Z,24.28
2016-06-21T04:50:58.173Z,24.14
2016-06-21T04:51:58.157Z,24.23
2016-06-21T04:52:59.413Z,24.24
2016-06-21T04:53:58.777Z,24.26
2016-06-21T04:54:58.758Z,24.33
2016-06-21T04:55:58.093Z,24.4
2016-06-21T04:56:58.732Z,24.24
2016-06-21T04:57:59.365Z,24.29
2016-06-21T04:58:59.347Z,24.26
2016-06-21T04:59:58.690Z,24.47
2016-06-21T05:00:58.673Z,24.36
2016-06-21T05:01:59.294Z,24.48
2016-06-21T05:02:59.286Z,24.54
2016-06-21T05:03:59.276Z,24.53
2016-06-21T05:04:58.621Z,24.61
2016-06-21T05:05:58.604Z,24.5
2016-06-21T05:06:59.230Z,24.36
2016-06-21T05:07:57.939Z,24.33
2016-06-21T05:08:58.577Z,24.26
2016-06-21T05:09:59.191Z,24.36
2016-06-21T05:10:59.184Z,24.38
2016-06-21T05:11:58.519Z,24.38
2016-06-21T05:12:59.165Z,24.3
2016-06-21T05:13:59.135Z,24.32
2016-06-21T05:14:58.485Z,24.3
2016-06-21T05:15:59.118Z,24.38
2016-06-21T05:16:59.098Z,24.42
2016-06-21T05:17:59.081Z,24.39
2016-06-21T05:18:58.423Z,24.29
2016-06-21T05:19:58.412Z,24.26
2016-06-21T05:20:59.044Z,24.21
2016-06-21T05:21:58.385Z,24.18
2016-06-21T05:22:57.732Z,24.05
2016-06-21T05:23:57.728Z,24.11
2016-06-21T05:24:58.986Z,24.06
2016-06-21T05:25:58.338Z,24.08
2016-06-21T05:26:58.331Z,23.93
2016-06-21T05:27:58.314Z,23.91
2016-06-21T05:28:58.295Z,23.76
2016-06-21T05:29:58.321Z,23.69
2016-06-21T05:30:58.891Z,23.68
2016-06-21T05:31:58.904Z,23.65
2016-06-21T05:32:58.241Z,23.62
2016-06-21T05:33:58.219Z,23.66
2016-06-21T05:34:58.208Z,23.68
2016-06-21T05:35:57.559Z,23.66
2016-06-21T05:36:58.189Z,23.63
2016-06-21T05:37:58.810Z,23.62
2016-06-21T05:38:58.821Z,23.61
2016-06-21T05:39:58.781Z,23.48
2016-06-21T05:40:58.763Z,23.46
2016-06-21T05:41:58.115Z,23.51
2016-06-21T05:42:58.098Z,23.36
2016-06-21T05:43:58.734Z,23.37
2016-06-21T05:44:58.719Z,23.4
2016-06-21T05:45:58.702Z,23.37
2016-06-21T05:46:58.038Z,23.32
2016-06-21T05:47:58.039Z,23.24
2016-06-21T05:48:58.015Z,23.25
2016-06-21T05:49:58.014Z,23.43
2016-06-21T05:50:58.629Z,23.4
2016-06-21T05:51:58.625Z,23.44
2016-06-21T05:52:58.601Z,23.55
2016-06-21T05:53:57.944Z,23.56
2016-06-21T05:54:58.576Z,23.51
2016-06-21T05:55:58.546Z,23.62
2016-06-21T05:56:58.549Z,23.51
2016-06-21T05:57:57.896Z,23.61
2016-06-21T05:58:57.884Z,23.63
2016-06-21T05:59:57.859Z,23.65
2016-06-21T06:00:57.854Z,23.62
2016-06-21T06:01:58.470Z,23.68
2016-06-21T06:02:58.460Z,23.66
2016-06-21T06:03:58.462Z,23.56
2016-06-21T06:04:58.439Z,23.5
2016-06-21T06:05:58.436Z,23.55
2016-06-21T06:06:57.788Z,23.55
2016-06-21T06:07:58.406Z,23.69
2016-06-21T06:08:58.383Z,23.51
2016-06-21T06:09:57.730Z,23.63
2016-06-21T06:10:58.353Z,23.41
2016-06-21T06:11:58.334Z,23.39
2016-06-21T06:12:57.687Z,23.55
2016-06-21T06:13:57.675Z,23.58
2016-06-21T06:14:57.661Z,23.55
2016-06-21T06:15:58.275Z,23.47
2016-06-21T06:16:58.272Z,23.51
2016-06-21T06:17:58.253Z,23.5
2016-06-21T06:18:58.252Z,23.4
2016-06-21T06:19:58.225Z,23.48
2016-06-21T06:20:58.237Z,23.36
2016-06-21T06:21:57.565Z,23.25
2016-06-21T06:22:58.184Z,23.4
2016-06-21T06:23:58.181Z,23.56
2016-06-21T06:24:57.517Z,23.65
2016-06-21T06:25:58.143Z,23.48
2016-06-21T06:26:58.130Z,23.34
2016-06-21T06:27:58.128Z,23.13
2016-06-21T06:28:57.476Z,23.17
2016-06-21T06:29:58.084Z,23.12
2016-06-21T06:30:58.084Z,23.27
2016-06-21T06:31:57.416Z,23.4
2016-06-21T06:32:58.052Z,23.51
2016-06-21T06:33:57.394Z,23.48
2016-06-21T06:34:58.032Z,23.48
2016-06-21T06:35:58.013Z,23.46
2016-06-21T06:36:57.994Z,23.55
2016-06-21T06:37:57.379Z,23.58
2016-06-21T06:38:57.338Z,23.61
2016-06-21T06:39:57.947Z,23.63
2016-06-21T06:40:57.935Z,23.36
2016-06-21T06:41:57.921Z,23.48
2016-06-21T06:42:57.915Z,23.44
2016-06-21T06:43:57.256Z,23.44
2016-06-21T06:44:57.254Z,23.55
2016-06-21T06:45:57.866Z,23.46
2016-06-21T06:46:57.895Z,23.51
2016-06-21T06:47:57.212Z,23.47
2016-06-21T06:48:57.839Z,23.44
2016-06-21T06:49:57.180Z,23.55
2016-06-21T06:50:57.805Z,23.56
2016-06-21T06:51:57.779Z,23.55
2016-06-21T06:52:57.133Z,23.44
2016-06-21T06:53:57.783Z,23.4
2016-06-21T06:54:57.098Z,23.51
2016-06-21T06:55:57.733Z,23.46
2016-06-21T06:56:57.726Z,23.4
2016-06-21T06:57:57.070Z,23.54
2016-06-21T06:58:57.693Z,23.47
2016-06-21T06:59:57.038Z,23.61
2016-06-21T07:00:57.022Z,23.66
2016-06-21T07:01:57.647Z,23.62
2016-06-21T07:02:57.667Z,23.47
2016-06-21T07:03:56.983Z,23.36
2016-06-21T07:04:56.978Z,23.41
2016-06-21T07:05:57.610Z,23.65
2016-06-21T07:06:57.588Z,23.66
2016-06-21T07:07:57.593Z,23.41
2016-06-21T07:08:57.554Z,23.51
2016-06-21T07:09:57.538Z,23.44
2016-06-21T07:10:57.532Z,23.39
2016-06-21T07:11:57.512Z,23.43
2016-06-21T07:12:57.503Z,23.51
2016-06-21T07:13:57.475Z,23.66
2016-06-21T07:14:57.473Z,23.77
2016-06-21T07:15:56.830Z,23.83
2016-06-21T07:16:57.441Z,23.86
2016-06-21T07:17:57.423Z,23.8
2016-06-21T07:18:57.429Z,23.61
2016-06-21T07:19:57.405Z,23.74
2016-06-21T07:20:57.392Z,23.76
2016-06-21T07:21:57.379Z,23.77
2016-06-21T07:22:57.359Z,23.73
2016-06-21T07:23:57.509Z,23.62
2016-06-21T07:24:56.694Z,23.61
2016-06-21T07:25:56.671Z,23.62
2016-06-21T07:26:57.308Z,23.63
2016-06-21T07:27:56.662Z,23.66
2016-06-21T07:28:56.746Z,23.63
2016-06-21T07:29:57.286Z,23.69
2016-06-21T07:30:57.267Z,23.74
2016-06-21T07:31:57.234Z,23.8
2016-06-21T07:32:56.595Z,23.93
2016-06-21T07:33:55.941Z,23.92
2016-06-21T07:34:57.200Z,23.95
2016-06-21T07:35:57.202Z,23.99
2016-06-21T07:36:56.541Z,24.06
2016-06-21T07:37:56.526Z,23.99
2016-06-21T07:38:57.152Z,24.02
2016-06-21T07:39:56.487Z,24.23
2016-06-21T07:40:57.123Z,24.18
2016-06-21T07:41:57.116Z,24.18
2016-06-21T07:43:56.449Z,24.28
2016-06-21T07:44:57.070Z,24.3
2016-06-21T07:45:57.054Z,24.21
2016-06-21T07:46:55.761Z,24.35
2016-06-21T07:47:56.370Z,24.36
2016-06-21T07:48:57.003Z,24.39
2016-06-21T07:49:56.993Z,24.35
2016-06-21T07:50:56.979Z,24.45
2016-06-21T07:51:55.670Z,24.54
2016-06-21T07:52:56.306Z,24.65
2016-06-21T07:53:56.300Z,24.63
2016-06-21T07:54:56.915Z,24.58
2016-06-21T07:55:56.906Z,24.63
2016-06-21T07:56:56.259Z,24.69
2016-06-21T07:57:56.891Z,24.74
2016-06-21T07:58:55.598Z,24.89
2016-06-21T07:59:56.223Z,24.85
2016-06-21T08:00:56.841Z,24.96
2016-06-21T08:01:56.822Z,24.99
2016-06-21T08:02:56.831Z,24.95
2016-06-21T08:03:56.167Z,24.95
2016-06-21T08:04:56.150Z,25.06
2016-06-21T08:05:56.143Z,24.91
2016-06-21T08:06:56.135Z,24.92
2016-06-21T08:07:56.745Z,24.99
2016-06-21T08:08:56.085Z,25.11
2016-06-21T08:09:56.718Z,25.14
2016-06-21T08:10:56.719Z,25.17
2016-06-21T08:11:56.700Z,25.11
2016-06-21T08:12:56.039Z,25.14
2016-06-21T08:13:56.659Z,25.07
2016-06-21T08:14:56.042Z,25.21
2016-06-21T08:15:55.355Z,25.22
2016-06-21T08:16:55.990Z,25.21
2016-06-21T08:17:56.638Z,25.22
2016-06-21T08:18:56.597Z,25.18
2016-06-21T08:19:55.950Z,25.25
2016-06-21T08:20:56.587Z,25.32
2016-06-21T08:21:56.570Z,25.36
2016-06-21T08:22:56.550Z,25.33
2016-06-21T08:23:55.911Z,25.5
2016-06-21T08:24:55.905Z,25.51
2016-06-21T08:25:56.542Z,25.58
2016-06-21T08:26:56.500Z,25.54
2016-06-21T08:27:56.512Z,25.66
2016-06-21T08:28:56.482Z,25.68
2016-06-21T08:29:56.456Z,25.5
2016-06-21T08:30:56.446Z,25.44
2016-06-21T08:31:55.801Z,25.44
2016-06-21T08:32:56.418Z,25.55
2016-06-21T08:33:56.409Z,25.53
2016-06-21T08:34:56.395Z,25.59
2016-06-21T08:35:55.782Z,25.53
2016-06-21T08:36:56.371Z,25.46
2016-06-21T08:37:55.074Z,25.59
2016-06-21T08:38:56.342Z,25.55
2016-06-21T08:39:55.708Z,25.59
2016-06-21T08:40:56.312Z,25.65
2016-06-21T08:41:56.302Z,25.55
2016-06-21T08:42:55.658Z,25.66
2016-06-21T08:43:56.299Z,25.63
2016-06-21T08:44:56.283Z,25.77
2016-06-21T08:45:56.265Z,25.8
2016-06-21T08:46:55.641Z,25.83
2016-06-21T08:47:54.949Z,25.93
2016-06-21T08:48:56.224Z,25.95
2016-06-21T08:49:55.569Z,25.91
2016-06-21T08:50:55.599Z,25.84
2016-06-21T08:51:55.545Z,25.72
2016-06-21T08:52:56.169Z,25.81
2016-06-21T08:53:56.164Z,25.87
2016-06-21T08:54:55.501Z,25.9
2016-06-21T08:55:56.130Z,25.95
2016-06-21T08:56:55.469Z,26.09
2016-06-21T08:57:55.467Z,26.06
2016-06-21T08:58:56.031Z,26.1
2016-06-21T08:59:56.086Z,26.07
2016-06-21T09:00:56.202Z,26.18
2016-06-21T09:01:56.051Z,26.06
2016-06-21T09:02:56.099Z,26.05
2016-06-21T09:03:56.030Z,26.1
2016-06-21T09:04:56.155Z,26.16
2016-06-21T09:05:55.390Z,26.16
2016-06-21T09:06:55.563Z,26.26
2016-06-21T09:07:54.904Z,26.28
2016-06-21T09:08:56.033Z,26.19
2016-06-21T09:09:56.044Z,26.23
2016-06-21T09:10:54.661Z,26.37
2016-06-21T09:11:55.427Z,26.36
2016-06-21T09:12:55.943Z,26.34
2016-06-21T09:13:56.007Z,26.37
2016-06-21T09:14:55.272Z,26.44
2016-06-21T09:15:55.877Z,26.44
2016-06-21T09:16:55.295Z,26.55
2016-06-21T09:17:55.892Z,26.53
2016-06-21T09:18:55.201Z,26.7
2016-06-21T09:19:56.151Z,26.7
2016-06-21T09:20:55.817Z,26.7
2016-06-21T09:21:55.809Z,26.83
2016-06-21T09:22:55.427Z,26.74
2016-06-21T09:23:55.147Z,26.85
2016-06-21T09:24:55.865Z,26.74
2016-06-21T09:25:55.767Z,26.88
2016-06-21T09:26:55.775Z,26.97
2016-06-21T09:27:55.741Z,26.85
2016-06-21T09:28:55.166Z,26.9
2016-06-21T09:29:55.515Z,26.8
2016-06-21T09:30:55.056Z,26.66
2016-06-21T09:31:55.725Z,26.81
2016-06-21T09:32:55.047Z,26.93
2016-06-21T09:33:55.027Z,27.03
2016-06-21T09:34:55.673Z,26.99
2016-06-21T09:35:55.006Z,27.07
2016-06-21T09:36:55.685Z,27.14
2016-06-21T09:37:54.979Z,26.93
2016-06-21T09:38:55.978Z,26.81
2016-06-21T09:39:55.704Z,26.75
2016-06-21T09:40:54.311Z,26.68
2016-06-21T09:41:55.031Z,26.78
2016-06-21T09:42:55.257Z,26.7
2016-06-21T09:43:55.600Z,26.75
2016-06-21T09:44:55.559Z,26.74
2016-06-21T09:45:55.815Z,26.68
2016-06-21T09:46:54.882Z,26.71
2016-06-21T09:47:54.244Z,26.7
2016-06-21T09:48:55.493Z,26.73
2016-06-21T09:49:54.857Z,26.71
2016-06-21T09:50:55.501Z,26.62
2016-06-21T09:51:55.608Z,26.71
2016-06-21T09:52:56.067Z,26.92
2016-06-21T09:53:55.535Z,27
2016-06-21T09:54:54.148Z,26.97
2016-06-21T09:55:55.460Z,26.85
2016-06-21T09:56:55.438Z,27
2016-06-21T09:57:56.800Z,27.03
2016-06-21T09:58:55.335Z,27.12
2016-06-21T09:59:55.366Z,27.1
2016-06-21T10:00:55.250Z,27.1
2016-06-21T10:01:55.399Z,27.11
2016-06-21T10:02:55.326Z,27.18
2016-06-21T10:03:55.309Z,27.18
2016-06-21T10:04:55.298Z,27.12
2016-06-21T10:05:55.283Z,27.15
2016-06-21T10:06:55.278Z,27.22
2016-06-21T10:07:55.255Z,27.02
2016-06-21T10:08:54.640Z,26.96
2016-06-21T10:09:55.258Z,26.85
2016-06-21T10:10:55.239Z,26.96
2016-06-21T10:11:55.224Z,27.15
2016-06-21T10:12:54.558Z,27.25
2016-06-21T10:13:55.263Z,27.3
2016-06-21T10:14:55.222Z,27.22
2016-06-21T10:15:54.518Z,27.32
2016-06-21T10:16:55.160Z,27.21
2016-06-21T10:17:54.519Z,27.25
2016-06-21T10:18:54.508Z,27.44
2016-06-21T10:19:53.829Z,27.4
2016-06-21T10:20:55.114Z,27.55
2016-06-21T10:21:55.108Z,27.45
2016-06-21T10:22:54.448Z,27.59
2016-06-21T10:23:55.084Z,27.64
2016-06-21T10:24:55.106Z,27.63
2016-06-21T10:25:55.081Z,27.74
2016-06-21T10:26:55.089Z,27.77
2016-06-21T10:27:54.509Z,27.47
2016-06-21T10:28:54.393Z,27.59
2016-06-21T10:29:54.381Z,27.55
2016-06-21T10:30:55.005Z,27.71
2016-06-21T10:31:55.011Z,27.6
2016-06-21T10:32:54.984Z,27.7
2016-06-21T10:33:55.007Z,27.9
2016-06-21T10:34:54.934Z,27.92
2016-06-21T10:35:54.935Z,27.92
2016-06-21T10:36:54.995Z,27.82
2016-06-21T10:37:54.920Z,27.83
2016-06-21T10:38:54.917Z,28.02
2016-06-21T10:39:54.917Z,27.92
2016-06-21T10:40:54.887Z,27.9
2016-06-21T10:41:54.238Z,28.04
2016-06-21T10:42:54.934Z,28.02
2016-06-21T10:43:54.243Z,28.01
2016-06-21T10:44:54.863Z,27.7
2016-06-21T10:45:54.173Z,27.92
2016-06-21T10:46:54.182Z,28.07
2016-06-21T10:47:54.174Z,28.12
2016-06-21T10:48:54.818Z,28.08
2016-06-21T10:49:54.176Z,28.38
2016-06-21T10:50:54.798Z,28.63
2016-06-21T10:51:54.115Z,28.6
2016-06-21T10:52:53.505Z,28.52
2016-06-21T10:53:54.743Z,28.39
2016-06-21T10:54:54.086Z,28.57
2016-06-21T10:55:54.067Z,28.62
2016-06-21T10:56:54.717Z,28.59
2016-06-21T10:57:54.718Z,28.6
2016-06-21T10:58:54.693Z,28.74
2016-06-21T10:59:54.716Z,28.7
2016-06-21T11:00:54.366Z,28.85
2016-06-21T11:01:54.014Z,28.96
2016-06-21T11:02:54.016Z,29.12
2016-06-21T11:03:53.359Z,29.05
2016-06-21T11:04:53.342Z,29.31
2016-06-21T11:05:54.632Z,28.97
2016-06-21T11:06:53.955Z,29.17
2016-06-21T11:07:54.593Z,29.35
2016-06-21T11:08:54.583Z,29.73
2016-06-21T11:09:54.579Z,29.98
2016-06-21T11:10:53.918Z,29.94
2016-06-21T11:11:53.899Z,30.06
2016-06-21T11:12:54.524Z,29.84
2016-06-21T11:13:53.901Z,30.03
2016-06-21T11:14:54.520Z,30.09
2016-06-21T11:15:53.870Z,30
2016-06-21T11:16:54.514Z,30.06
2016-06-21T11:17:53.846Z,30.03
2016-06-21T11:18:53.236Z,30.19
2016-06-21T11:19:54.468Z,30.3
2016-06-21T11:20:53.842Z,30.59
2016-06-21T11:21:54.461Z,30.27
2016-06-21T11:22:53.795Z,30.51
2016-06-21T11:23:54.429Z,30.61
2016-06-21T11:24:54.434Z,30.31
2016-06-21T11:25:54.412Z,30.44
2016-06-21T11:26:54.618Z,30.51
2016-06-21T11:27:54.394Z,30.46
2016-06-21T11:28:54.422Z,30.61
2016-06-21T11:29:54.387Z,30.57
2016-06-21T11:30:53.735Z,30.62
2016-06-21T11:31:53.707Z,30.62
2016-06-21T11:32:54.345Z,30.54
2016-06-21T11:33:54.324Z,30.92
2016-06-21T11:34:54.323Z,30.55
2016-06-21T11:35:53.683Z,31.02
2016-06-21T11:36:54.309Z,30.91
2016-06-21T11:37:54.315Z,30.72
2016-06-21T11:38:54.290Z,30.24
2016-06-21T11:39:54.287Z,30.51
2016-06-21T11:40:54.259Z,30.73
2016-06-21T11:41:54.265Z,30.62
2016-06-21T11:42:53.616Z,30.78
2016-06-21T11:43:54.230Z,30.54
2016-06-21T11:44:53.587Z,30.9
2016-06-21T11:45:53.602Z,31.29
2016-06-21T11:46:54.242Z,31.24
2016-06-21T11:47:54.223Z,31.44
2016-06-21T11:48:54.212Z,31.61
2016-06-21T11:49:54.494Z,31.59
2016-06-21T11:50:54.206Z,31.96
2016-06-21T11:51:53.570Z,32.37
2016-06-21T11:52:54.191Z,32.37
2016-06-21T11:53:54.433Z,32.23
2016-06-21T11:54:53.562Z,32.58
2016-06-21T11:55:54.196Z,32.29
2016-06-21T11:56:54.200Z,32.53
2016-06-21T11:57:53.548Z,32.59
2016-06-21T11:58:54.191Z,32.8
2016-06-21T11:59:54.228Z,32.86
2016-06-21T12:00:53.548Z,33.45
2016-06-21T12:01:54.195Z,33.19
2016-06-21T12:02:54.191Z,33.64
2016-06-21T12:03:54.177Z,32.85
2016-06-21T12:04:53.597Z,33.22
2016-06-21T12:05:53.550Z,33.84
2016-06-21T12:06:54.173Z,33.89
2016-06-21T12:07:54.193Z,33.67
2016-06-21T12:08:53.549Z,33.53
2016-06-21T12:09:52.914Z,33.96
2016-06-21T12:10:54.178Z,34.2
2016-06-21T12:11:53.549Z,33.74
2016-06-21T12:12:53.539Z,33.79
2016-06-21T12:13:54.190Z,33.86
2016-06-21T12:14:53.553Z,34.23
2016-06-21T12:15:53.551Z,34.75
2016-06-21T12:16:54.183Z,34.75
2016-06-21T12:17:54.182Z,35.02
2016-06-21T12:18:53.551Z,34.18
2016-06-21T12:19:53.565Z,34.88
2016-06-21T12:20:52.912Z,34.39
2016-06-21T12:21:54.185Z,34.2
2016-06-21T12:22:53.535Z,34.81
2016-06-21T12:23:54.189Z,34.62
2016-06-21T12:24:54.195Z,35
2016-06-21T12:25:54.185Z,35.52
2016-06-21T12:26:54.186Z,35.14
2016-06-21T12:27:54.183Z,35.52
2016-06-21T12:28:53.543Z,34.5
2016-06-21T12:29:54.192Z,34.38
2016-06-21T12:30:54.186Z,34.29
2016-06-21T12:31:54.223Z,34.38
2016-06-21T12:32:54.207Z,34.33
2016-06-21T12:33:54.202Z,34.42
2016-06-21T12:34:53.557Z,34.02
2016-06-21T12:35:54.200Z,34.21
2016-06-21T12:36:54.195Z,33.45
2016-06-21T12:37:54.243Z,34.16
2016-06-21T12:38:54.204Z,34.54
2016-06-21T12:39:53.554Z,34.55
2016-06-21T12:40:54.186Z,34.16
2016-06-21T12:41:54.268Z,34.21
2016-06-21T12:42:54.215Z,34.47
2016-06-21T12:43:54.212Z,33.98
2016-06-21T12:44:54.206Z,34.02
2016-06-21T12:45:53.565Z,33.83
2016-06-21T12:46:53.563Z,33.68
2016-06-21T12:47:54.212Z,33.62
2016-06-21T12:48:53.589Z,33.98
2016-06-21T12:49:54.241Z,34.5
2016-06-21T12:50:54.220Z,35.15
2016-06-21T12:51:54.231Z,35.52
2016-06-21T12:52:54.216Z,35.64
2016-06-21T12:53:54.199Z,35.58
2016-06-21T12:54:53.571Z,35.1
2016-06-21T12:55:54.252Z,35.23